createdAt,value
2019-03-10T00:00:21.481Z,2.10
2019-03-10T00:01:21.460Z,2.10
2019-03-10T00:02:21.442Z,2.20
2019-03-10T00:03:21.443Z,2.10
2019-03-10T00:04:21.419Z,1.90
2019-03-10T00:05:21.427Z,2.40
2019-03-10T00:06:21.392Z,2.30
2019-03-10T00:07:21.388Z,2.00
2019-03-10T00:08:21.386Z,2.30
2019-03-10T00:09:21.364Z,1.90
2019-03-10T00:10:21.354Z,2.20
2019-03-10T00:11:21.368Z,2.10
2019-03-10T00:12:21.335Z,1.90
2019-03-10T00:13:21.317Z,2.30
2019-03-10T00:14:21.329Z,1.60
2019-03-10T00:15:21.305Z,1.70
2019-03-10T00:16:21.292Z,2.00
2019-03-10T00:17:21.274Z,2.10
2019-03-10T00:18:21.259Z,2.10
2019-03-10T00:19:21.242Z,1.80
2019-03-10T00:20:21.249Z,1.90
2019-03-10T00:21:21.242Z,1.80
2019-03-10T00:22:21.213Z,1.80
2019-03-10T00:23:21.195Z,1.70
2019-03-10T00:24:21.200Z,2.00
2019-03-10T00:25:21.182Z,2.10
2019-03-10T00:26:21.234Z,1.90
2019-03-10T00:27:21.164Z,1.70
2019-03-10T00:28:21.155Z,1.80
2019-03-10T00:29:21.150Z,1.80
2019-03-10T00:30:21.122Z,2.00
2019-03-10T00:31:21.145Z,2.00
2019-03-10T00:32:21.105Z,2.10
2019-03-10T00:33:21.117Z,2.10
2019-03-10T00:34:21.091Z,2.00
2019-03-10T00:35:21.076Z,2.10
2019-03-10T00:36:21.055Z,2.40
2019-03-10T00:37:21.063Z,1.90
2019-03-10T00:38:21.054Z,1.80
2019-03-10T00:39:21.030Z,2.00
2019-03-10T00:40:21.020Z,1.90
2019-03-10T00:41:21.004Z,1.80
2019-03-10T00:42:21.011Z,2.50
2019-03-10T00:43:20.982Z,1.90
2019-03-10T00:44:20.993Z,1.90
2019-03-10T00:45:20.950Z,1.70
2019-03-10T00:46:20.949Z,2.40
2019-03-10T00:47:20.955Z,2.40
2019-03-10T00:48:20.917Z,1.90
2019-03-10T00:49:20.910Z,1.70
2019-03-10T00:50:20.910Z,2.20
2019-03-10T00:51:20.897Z,2.20
2019-03-10T00:52:20.923Z,2.20
2019-03-10T00:53:20.880Z,2.40
2019-03-10T00:54:20.857Z,2.10
2019-03-10T00:55:20.887Z,2.80
2019-03-10T00:56:20.855Z,2.60
2019-03-10T00:57:20.811Z,2.00
2019-03-10T00:58:20.819Z,2.70
2019-03-10T00:59:20.795Z,2.20
2019-03-10T01:00:20.795Z,2.00
2019-03-10T01:01:20.776Z,1.90
2019-03-10T01:02:20.770Z,1.90
2019-03-10T01:03:20.770Z,1.90
2019-03-10T01:04:20.757Z,1.90
2019-03-10T01:05:20.731Z,2.10
2019-03-10T01:06:20.769Z,2.20
2019-03-10T01:07:20.712Z,2.00
2019-03-10T01:08:20.719Z,1.70
2019-03-10T01:09:20.695Z,2.00
2019-03-10T01:10:20.672Z,2.00
2019-03-10T01:11:20.671Z,2.00
2019-03-10T01:12:20.656Z,2.00
2019-03-10T01:13:20.648Z,2.20
2019-03-10T01:14:20.628Z,1.80
2019-03-10T01:15:20.632Z,1.90
2019-03-10T01:16:20.605Z,2.00
2019-03-10T01:17:20.599Z,2.00
2019-03-10T01:18:20.600Z,2.20
2019-03-10T01:19:20.573Z,2.30
2019-03-10T01:20:20.570Z,2.10
2019-03-10T01:21:20.560Z,1.90
2019-03-10T01:22:20.538Z,1.90
2019-03-10T01:23:20.544Z,2.40
2019-03-10T01:24:20.515Z,2.10
2019-03-10T01:25:20.513Z,2.20
2019-03-10T01:26:20.511Z,1.90
2019-03-10T01:27:20.488Z,1.90
2019-03-10T01:28:20.507Z,1.50
2019-03-10T01:29:20.460Z,1.90
2019-03-10T01:30:20.452Z,1.90
2019-03-10T01:31:20.447Z,2.10
2019-03-10T01:32:20.434Z,2.10
2019-03-10T01:33:20.460Z,2.00
2019-03-10T01:34:20.406Z,2.30
2019-03-10T01:35:20.407Z,2.10
2019-03-10T01:36:20.394Z,2.10
2019-03-10T01:37:20.377Z,2.00
2019-03-10T01:38:20.360Z,2.10
2019-03-10T01:39:20.368Z,1.90
2019-03-10T01:40:20.346Z,2.60
2019-03-10T01:41:20.324Z,2.10
2019-03-10T01:42:20.326Z,2.10
2019-03-10T01:43:20.323Z,2.40
2019-03-10T01:44:20.328Z,2.00
2019-03-10T01:45:20.299Z,2.50
2019-03-10T01:46:20.310Z,1.90
2019-03-10T01:47:20.267Z,2.20
2019-03-10T01:48:20.264Z,1.80
2019-03-10T01:49:20.288Z,2.40
2019-03-10T01:50:20.240Z,1.90
2019-03-10T01:51:20.224Z,2.10
2019-03-10T01:52:20.211Z,2.00
2019-03-10T01:53:25.427Z,2.10
2019-03-10T01:54:21.270Z,1.90
2019-03-10T01:55:20.176Z,1.90
2019-03-10T01:56:20.200Z,1.90
2019-03-10T01:57:20.155Z,2.40
2019-03-10T01:58:20.146Z,2.00
2019-03-10T01:59:20.121Z,2.00
2019-03-10T02:00:20.131Z,2.20
2019-03-10T02:01:20.103Z,2.30
2019-03-10T02:02:25.581Z,2.10
2019-03-10T02:03:21.090Z,1.70
2019-03-10T02:04:20.082Z,1.90
2019-03-10T02:05:20.093Z,1.60
2019-03-10T02:06:20.067Z,1.90
2019-03-10T02:07:20.046Z,2.00
2019-03-10T02:08:20.025Z,1.90
2019-03-10T02:09:20.013Z,2.00
2019-03-10T02:10:20.018Z,1.80
2019-03-10T02:11:20.014Z,1.80
2019-03-10T02:12:19.994Z,1.60
2019-03-10T02:13:19.970Z,2.00
2019-03-10T02:14:19.957Z,1.70
2019-03-10T02:15:19.969Z,1.90
2019-03-10T02:16:19.947Z,1.70
2019-03-10T02:17:19.938Z,1.60
2019-03-10T02:18:19.913Z,1.80
2019-03-10T02:19:19.913Z,1.60
2019-03-10T02:20:19.926Z,1.90
2019-03-10T02:21:19.887Z,1.80
2019-03-10T02:22:19.878Z,2.00
2019-03-10T02:23:19.871Z,1.80
2019-03-10T02:24:23.678Z,2.00
2019-03-10T02:25:19.867Z,2.10
2019-03-10T02:26:19.831Z,2.00
2019-03-10T02:27:19.830Z,1.60
2019-03-10T02:28:19.812Z,1.50
2019-03-10T02:29:19.804Z,1.80
2019-03-10T02:30:19.802Z,1.80
2019-03-10T02:31:19.796Z,1.90
2019-03-10T02:32:19.804Z,1.40
2019-03-10T02:33:19.748Z,1.90
2019-03-10T02:34:19.741Z,1.50
2019-03-10T02:35:19.741Z,1.90
2019-03-10T02:36:19.711Z,1.70
2019-03-10T02:37:19.716Z,1.80
2019-03-10T02:38:19.782Z,2.00
2019-03-10T02:39:19.693Z,1.80
2019-03-10T02:40:19.708Z,1.60
2019-03-10T02:41:19.680Z,1.70
2019-03-10T02:42:19.649Z,2.00
2019-03-10T02:43:19.649Z,1.50
2019-03-10T02:44:19.624Z,1.80
2019-03-10T02:45:19.643Z,2.00
2019-03-10T02:46:19.617Z,1.70
2019-03-10T02:47:19.599Z,1.80
2019-03-10T02:48:19.584Z,1.60
2019-03-10T02:49:19.569Z,1.80
2019-03-10T02:50:19.586Z,1.80
2019-03-10T02:51:19.558Z,1.70
2019-03-10T02:52:19.551Z,1.80
2019-03-10T02:53:19.535Z,1.80
2019-03-10T02:54:19.513Z,1.60
2019-03-10T02:55:19.532Z,1.80
2019-03-10T02:56:19.515Z,1.90
2019-03-10T02:57:19.497Z,2.00
2019-03-10T02:58:19.479Z,1.80
2019-03-10T02:59:19.491Z,1.90
2019-03-10T03:00:19.493Z,1.80
2019-03-10T03:01:19.452Z,1.80
2019-03-10T03:02:19.474Z,1.80
2019-03-10T03:03:19.433Z,1.70
2019-03-10T03:04:19.411Z,1.90
2019-03-10T03:05:19.422Z,1.50
2019-03-10T03:06:19.390Z,1.60
2019-03-10T03:07:19.372Z,2.30
2019-03-10T03:08:19.370Z,1.80
2019-03-10T03:09:19.376Z,1.80
2019-03-10T03:10:19.380Z,2.20
2019-03-10T03:11:19.330Z,2.10
2019-03-10T03:12:19.318Z,1.70
2019-03-10T03:13:19.329Z,1.50
2019-03-10T03:14:19.348Z,1.70
2019-03-10T03:15:19.297Z,1.80
2019-03-10T03:16:19.289Z,1.80
2019-03-10T03:17:19.262Z,1.70
2019-03-10T03:18:19.269Z,1.50
2019-03-10T03:19:19.240Z,1.80
2019-03-10T03:20:19.242Z,1.80
2019-03-10T03:21:19.241Z,1.90
2019-03-10T03:22:19.232Z,2.10
2019-03-10T03:23:19.205Z,2.00
2019-03-10T03:24:19.184Z,1.80
2019-03-10T03:25:19.188Z,1.90
2019-03-10T03:26:19.183Z,1.80
2019-03-10T03:27:19.150Z,2.10
2019-03-10T03:28:19.146Z,2.20
2019-03-10T03:29:19.129Z,1.70
2019-03-10T03:30:19.123Z,2.20
2019-03-10T03:31:19.125Z,2.10
2019-03-10T03:32:19.098Z,2.20
2019-03-10T03:33:19.111Z,2.10
2019-03-10T03:34:19.117Z,2.20
2019-03-10T03:35:19.089Z,1.70
2019-03-10T03:36:19.087Z,1.80
2019-03-10T03:37:19.059Z,2.40
2019-03-10T03:38:19.031Z,2.00
2019-03-10T03:39:19.123Z,1.80
2019-03-10T03:40:19.024Z,2.10
2019-03-10T03:41:19.028Z,2.30
2019-03-10T03:42:18.996Z,2.50
2019-03-10T03:43:18.989Z,2.50
2019-03-10T03:44:18.957Z,2.20
2019-03-10T03:45:18.950Z,2.40
2019-03-10T03:46:18.980Z,2.40
2019-03-10T03:47:18.935Z,2.30
2019-03-10T03:48:18.922Z,2.50
2019-03-10T03:49:18.915Z,2.30
2019-03-10T03:50:18.901Z,2.50
2019-03-10T03:51:18.913Z,2.40
2019-03-10T03:52:18.871Z,2.30
2019-03-10T03:53:18.868Z,2.70
2019-03-10T03:54:18.847Z,2.30
2019-03-10T03:55:18.834Z,2.40
2019-03-10T03:56:18.859Z,2.30
2019-03-10T03:57:18.830Z,2.50
2019-03-10T03:58:18.810Z,2.30
2019-03-10T03:59:18.798Z,2.60
2019-03-10T04:00:18.782Z,2.70
2019-03-10T04:01:18.794Z,2.50
2019-03-10T04:02:18.778Z,2.70
2019-03-10T04:03:18.763Z,2.40
2019-03-10T04:04:18.742Z,2.60
2019-03-10T04:05:18.753Z,2.90
2019-03-10T04:06:18.747Z,2.50
2019-03-10T04:07:18.709Z,3.00
2019-03-10T04:08:18.700Z,2.60
2019-03-10T04:09:18.722Z,2.70
2019-03-10T04:10:18.674Z,2.70
2019-03-10T04:11:18.678Z,2.70
2019-03-10T04:12:18.661Z,2.80
2019-03-10T04:13:18.634Z,2.70
2019-03-10T04:14:18.633Z,2.50
2019-03-10T04:15:18.614Z,3.20
2019-03-10T04:16:18.656Z,2.80
2019-03-10T04:17:18.604Z,2.90
2019-03-10T04:18:18.587Z,2.80
2019-03-10T04:19:18.570Z,3.20
2019-03-10T04:20:18.565Z,2.70
2019-03-10T04:21:18.555Z,2.90
2019-03-10T04:22:18.534Z,3.10
2019-03-10T04:23:18.534Z,2.80
2019-03-10T04:24:18.550Z,2.90
2019-03-10T04:25:18.513Z,3.20
2019-03-10T04:26:18.513Z,2.70
2019-03-10T04:27:18.488Z,3.10
2019-03-10T04:28:18.477Z,2.90
2019-03-10T04:29:18.486Z,3.00
2019-03-10T04:30:18.454Z,3.10
2019-03-10T04:31:18.462Z,2.90
2019-03-10T04:32:18.436Z,3.30
2019-03-10T04:33:18.410Z,3.20
2019-03-10T04:34:18.413Z,3.10
2019-03-10T04:35:18.400Z,3.10
2019-03-10T04:36:18.450Z,3.30
2019-03-10T04:37:18.373Z,3.40
2019-03-10T04:38:18.386Z,3.40
2019-03-10T04:39:18.340Z,3.40
2019-03-10T04:40:18.339Z,3.40
2019-03-10T04:41:18.344Z,3.20
2019-03-10T04:42:18.318Z,3.40
2019-03-10T04:43:18.312Z,3.10
2019-03-10T04:44:18.291Z,3.60
2019-03-10T04:45:18.282Z,3.70
2019-03-10T04:46:18.280Z,3.30
2019-03-10T04:47:18.274Z,3.60
2019-03-10T04:48:18.250Z,3.90
2019-03-10T04:49:18.243Z,3.40
2019-03-10T04:50:18.228Z,3.50
2019-03-10T04:51:18.253Z,3.60
2019-03-10T04:52:18.208Z,3.90
2019-03-10T04:53:18.207Z,3.50
2019-03-10T04:54:18.185Z,4.40
2019-03-10T04:55:18.178Z,3.90
2019-03-10T04:56:18.162Z,3.90
2019-03-10T04:57:18.166Z,3.80
2019-03-10T04:58:18.140Z,4.00
2019-03-10T04:59:18.133Z,3.80
2019-03-10T05:00:18.121Z,4.20
2019-03-10T05:01:18.119Z,3.90
2019-03-10T05:02:18.108Z,4.20
2019-03-10T05:03:18.084Z,3.80
2019-03-10T05:04:18.098Z,3.80
2019-03-10T05:05:18.055Z,4.00
2019-03-10T05:06:18.056Z,4.00
2019-03-10T05:07:18.062Z,3.70
2019-03-10T05:08:18.073Z,3.70
2019-03-10T05:09:18.026Z,3.80
2019-03-10T05:10:18.018Z,4.20
2019-03-10T05:11:18.005Z,4.00
2019-03-10T05:12:18.009Z,3.80
2019-03-10T05:13:17.962Z,3.80
2019-03-10T05:14:17.955Z,4.00
2019-03-10T05:15:17.952Z,4.40
2019-03-10T05:16:17.947Z,4.00
2019-03-10T05:17:17.945Z,3.70
2019-03-10T05:18:17.921Z,4.20
2019-03-10T05:19:17.900Z,4.40
2019-03-10T05:20:17.901Z,4.00
2019-03-10T05:21:17.877Z,4.20
2019-03-10T05:22:17.887Z,4.30
2019-03-10T05:23:17.857Z,4.10
2019-03-10T05:24:17.862Z,4.10
2019-03-10T05:25:17.837Z,4.20
2019-03-10T05:26:17.857Z,4.40
2019-03-10T05:27:17.833Z,4.70
2019-03-10T05:28:17.814Z,4.30
2019-03-10T05:29:17.799Z,4.50
2019-03-10T05:30:17.797Z,4.50
2019-03-10T05:31:17.762Z,4.60
2019-03-10T05:32:17.778Z,4.60
2019-03-10T05:33:17.754Z,4.90
2019-03-10T05:34:17.736Z,4.80
2019-03-10T05:35:17.777Z,4.80
2019-03-10T05:36:17.764Z,4.90
2019-03-10T05:37:17.718Z,4.60
2019-03-10T05:38:17.700Z,5.10
2019-03-10T05:39:17.688Z,4.80
2019-03-10T05:40:17.673Z,4.10
2019-03-10T05:41:17.682Z,4.50
2019-03-10T05:42:17.671Z,4.60
2019-03-10T05:43:17.651Z,4.70
2019-03-10T05:44:17.622Z,4.00
2019-03-10T05:45:17.622Z,4.20
2019-03-10T05:46:17.618Z,4.40
2019-03-10T05:47:17.612Z,4.30
2019-03-10T05:48:17.582Z,4.50
2019-03-10T05:49:17.575Z,5.00
2019-03-10T05:50:17.551Z,3.90
2019-03-10T05:51:17.552Z,4.70
2019-03-10T05:52:17.528Z,4.40
2019-03-10T05:53:17.545Z,4.20
2019-03-10T05:54:17.514Z,4.40
2019-03-10T05:55:17.506Z,4.00
2019-03-10T05:56:17.492Z,4.00
2019-03-10T05:57:17.475Z,4.70
2019-03-10T05:58:17.488Z,3.80
2019-03-10T05:59:17.459Z,4.00
2019-03-10T06:00:17.452Z,4.20
2019-03-10T06:01:17.433Z,4.20
2019-03-10T06:02:17.444Z,4.30
2019-03-10T06:03:17.434Z,4.00
2019-03-10T06:04:17.409Z,4.00
2019-03-10T06:05:17.394Z,4.40
2019-03-10T06:06:17.389Z,4.00
2019-03-10T06:07:17.366Z,4.10
2019-03-10T06:08:17.372Z,4.40
2019-03-10T06:09:17.348Z,4.10
2019-03-10T06:10:17.342Z,4.40
2019-03-10T06:11:17.336Z,4.20
2019-03-10T06:12:17.321Z,4.20
2019-03-10T06:13:17.324Z,4.20
2019-03-10T06:14:17.293Z,4.20
2019-03-10T06:15:17.293Z,3.90
2019-03-10T06:16:17.282Z,4.20
2019-03-10T06:17:17.265Z,4.10
2019-03-10T06:18:17.277Z,3.70
2019-03-10T06:19:17.254Z,4.40
2019-03-10T06:20:17.227Z,4.10
2019-03-10T06:21:17.232Z,3.50
2019-03-10T06:22:17.213Z,3.70
2019-03-10T06:23:17.225Z,4.40
2019-03-10T06:24:17.185Z,3.90
2019-03-10T06:25:17.174Z,4.00
2019-03-10T06:26:17.160Z,4.20
2019-03-10T06:27:17.151Z,3.80
2019-03-10T06:28:17.167Z,3.80
2019-03-10T06:29:17.129Z,4.60
2019-03-10T06:30:17.129Z,4.20
2019-03-10T06:31:17.104Z,4.10
2019-03-10T06:32:17.094Z,3.90
2019-03-10T06:33:17.085Z,3.60
2019-03-10T06:34:17.102Z,4.00
2019-03-10T06:35:17.062Z,4.10
2019-03-10T06:36:17.073Z,3.90
2019-03-10T06:37:17.041Z,3.80
2019-03-10T06:38:17.039Z,3.90
2019-03-10T06:39:17.047Z,3.90
2019-03-10T06:40:17.034Z,3.40
2019-03-10T06:41:17.012Z,3.70
2019-03-10T06:42:16.989Z,3.90
2019-03-10T06:43:16.969Z,3.60
2019-03-10T06:44:16.983Z,3.60
2019-03-10T06:45:16.980Z,4.50
2019-03-10T06:46:16.949Z,4.00
2019-03-10T06:47:16.929Z,3.80
2019-03-10T06:48:16.911Z,3.90
2019-03-10T06:49:16.934Z,4.20
2019-03-10T06:50:16.899Z,3.90
2019-03-10T06:51:16.896Z,4.00
2019-03-10T06:52:16.878Z,3.90
2019-03-10T06:53:16.869Z,3.90
2019-03-10T06:54:16.858Z,4.30
2019-03-10T06:55:16.834Z,3.90
2019-03-10T06:56:16.834Z,3.90
2019-03-10T06:57:16.826Z,4.20
2019-03-10T06:58:16.811Z,3.50
2019-03-10T06:59:16.827Z,4.20
2019-03-10T07:00:17.657Z,3.90
2019-03-10T07:01:16.788Z,3.90
2019-03-10T07:02:16.773Z,3.90
2019-03-10T07:03:16.753Z,4.10
2019-03-10T07:04:16.777Z,3.40
2019-03-10T07:05:16.734Z,3.90
2019-03-10T07:06:16.737Z,3.70
2019-03-10T07:07:16.708Z,3.60
2019-03-10T07:08:16.707Z,3.60
2019-03-10T07:09:16.698Z,3.90
2019-03-10T07:10:16.698Z,3.30
2019-03-10T07:11:16.661Z,3.60
2019-03-10T07:12:16.662Z,3.90
2019-03-10T07:13:16.667Z,3.50
2019-03-10T07:14:16.636Z,3.60
2019-03-10T07:15:16.651Z,3.70
2019-03-10T07:16:16.620Z,3.50
2019-03-10T07:17:16.594Z,3.60
2019-03-10T07:18:16.588Z,3.50
2019-03-10T07:19:16.581Z,3.60
2019-03-10T07:20:16.591Z,3.60
2019-03-10T07:21:16.556Z,3.80
2019-03-10T07:22:16.548Z,3.80
2019-03-10T07:23:16.534Z,3.60
2019-03-10T07:24:16.537Z,3.70
2019-03-10T07:25:16.529Z,3.60
2019-03-10T07:26:16.496Z,3.30
2019-03-10T07:27:16.495Z,3.30
2019-03-10T07:28:16.477Z,3.30
2019-03-10T07:29:16.474Z,3.60
2019-03-10T07:30:16.488Z,3.60
2019-03-10T07:31:16.455Z,3.50
2019-03-10T07:32:16.430Z,4.00
2019-03-10T07:33:16.423Z,3.60
2019-03-10T07:34:16.414Z,3.90
2019-03-10T07:35:16.427Z,3.70
2019-03-10T07:36:16.394Z,3.80
2019-03-10T07:37:16.488Z,3.40
2019-03-10T07:38:16.371Z,4.10
2019-03-10T07:39:16.394Z,3.50
2019-03-10T07:40:16.383Z,3.70
2019-03-10T07:41:16.329Z,3.60
2019-03-10T07:42:16.323Z,3.60
2019-03-10T07:43:16.317Z,4.00
2019-03-10T07:44:16.321Z,4.00
2019-03-10T07:45:16.312Z,3.80
2019-03-10T07:46:16.283Z,3.70
2019-03-10T07:47:16.279Z,3.50
2019-03-10T07:48:16.259Z,3.60
2019-03-10T07:49:18.026Z,3.90
2019-03-10T07:50:16.269Z,3.30
2019-03-10T07:51:16.235Z,3.80
2019-03-10T07:52:20.125Z,3.70
2019-03-10T07:53:16.211Z,3.50
2019-03-10T07:54:16.191Z,3.60
2019-03-10T07:55:16.175Z,3.50
2019-03-10T07:56:16.193Z,3.80
2019-03-10T07:57:16.154Z,4.30
2019-03-10T07:58:16.152Z,4.00
2019-03-10T07:59:16.145Z,3.80
2019-03-10T08:00:16.131Z,3.70
2019-03-10T08:01:16.126Z,3.90
2019-03-10T08:02:16.099Z,4.00
2019-03-10T08:03:16.097Z,3.70
2019-03-10T08:04:16.117Z,3.50
2019-03-10T08:05:16.074Z,4.10
2019-03-10T08:06:16.084Z,4.30
2019-03-10T08:07:16.086Z,3.70
2019-03-10T08:08:16.047Z,4.40
2019-03-10T08:09:16.029Z,4.80
2019-03-10T08:10:16.010Z,4.40
2019-03-10T08:11:16.027Z,4.40
2019-03-10T08:12:15.991Z,3.90
2019-03-10T08:13:15.979Z,4.10
2019-03-10T08:14:15.963Z,3.80
2019-03-10T08:15:15.951Z,4.10
2019-03-10T08:16:15.969Z,4.40
2019-03-10T08:17:15.937Z,4.20
2019-03-10T08:18:15.943Z,4.30
2019-03-10T08:19:15.918Z,3.70
2019-03-10T08:20:15.909Z,4.00
2019-03-10T08:21:15.965Z,3.50
2019-03-10T08:22:15.889Z,3.90
2019-03-10T08:23:15.878Z,3.80
2019-03-10T08:24:15.857Z,4.10
2019-03-10T08:25:15.856Z,3.80
2019-03-10T08:26:15.864Z,3.80
2019-03-10T08:27:15.832Z,3.60
2019-03-10T08:28:15.831Z,3.80
2019-03-10T08:29:15.809Z,3.70
2019-03-10T08:30:15.792Z,3.70
2019-03-10T08:31:15.810Z,3.80
2019-03-10T08:32:15.764Z,4.00
2019-03-10T08:33:15.768Z,3.80
2019-03-10T08:34:15.750Z,3.70
2019-03-10T08:35:15.742Z,3.80
2019-03-10T08:36:15.747Z,3.70
2019-03-10T08:37:15.710Z,4.20
2019-03-10T08:38:15.712Z,3.90
2019-03-10T08:39:15.686Z,3.80
2019-03-10T08:40:15.688Z,3.70
2019-03-10T08:41:15.678Z,3.60
2019-03-10T08:42:20.282Z,3.70
2019-03-10T08:43:16.648Z,3.30
2019-03-10T08:44:15.641Z,3.60
2019-03-10T08:45:15.624Z,3.20
2019-03-10T08:46:15.619Z,3.30
2019-03-10T08:47:15.620Z,3.20
2019-03-10T08:48:15.589Z,3.20
2019-03-10T08:49:15.669Z,3.70
2019-03-10T08:50:15.665Z,3.70
2019-03-10T08:51:15.562Z,3.60
2019-03-10T08:52:15.595Z,3.40
2019-03-10T08:53:15.548Z,4.10
2019-03-10T08:54:15.547Z,3.20
2019-03-10T08:55:15.520Z,3.60
2019-03-10T08:56:15.511Z,3.50
2019-03-10T08:57:15.520Z,3.30
2019-03-10T08:58:15.491Z,3.90
2019-03-10T08:59:15.468Z,3.90
2019-03-10T09:00:15.460Z,3.30
2019-03-10T09:01:15.452Z,3.30
2019-03-10T09:02:15.456Z,3.50
2019-03-10T09:03:15.420Z,3.20
2019-03-10T09:04:15.426Z,3.20
2019-03-10T09:05:15.409Z,3.00
2019-03-10T09:06:15.418Z,3.00
2019-03-10T09:07:15.427Z,3.30
2019-03-10T09:08:15.367Z,3.40
2019-03-10T09:09:15.362Z,3.30
2019-03-10T09:10:15.360Z,3.20
2019-03-10T09:11:15.361Z,3.70
2019-03-10T09:12:15.361Z,3.10
2019-03-10T09:13:15.354Z,3.20
2019-03-10T09:14:15.314Z,3.10
2019-03-10T09:15:15.299Z,2.80
2019-03-10T09:16:15.301Z,3.00
2019-03-10T09:17:15.314Z,2.70
2019-03-10T09:18:15.254Z,2.70
2019-03-10T09:19:15.318Z,3.20
2019-03-10T09:20:15.251Z,3.50
2019-03-10T09:21:15.244Z,2.80
2019-03-10T09:22:15.245Z,2.80
2019-03-10T09:23:15.233Z,3.10
2019-03-10T09:24:15.200Z,3.20
2019-03-10T09:25:15.182Z,3.40
2019-03-10T09:26:15.182Z,2.60
2019-03-10T09:27:15.197Z,3.10
2019-03-10T09:28:15.169Z,2.90
2019-03-10T09:29:15.134Z,3.20
2019-03-10T09:30:15.141Z,3.20
2019-03-10T09:31:15.124Z,3.10
2019-03-10T09:32:15.116Z,3.00
2019-03-10T09:33:15.128Z,2.80
2019-03-10T09:34:15.090Z,3.00
2019-03-10T09:35:15.070Z,3.20
2019-03-10T09:36:15.054Z,2.70
2019-03-10T09:37:15.056Z,3.10
2019-03-10T09:38:15.061Z,2.80
2019-03-10T09:39:15.036Z,2.80
2019-03-10T09:40:15.019Z,2.90
2019-03-10T09:41:15.008Z,2.70
2019-03-10T09:42:14.988Z,2.60
2019-03-10T09:43:15.021Z,2.80
2019-03-10T09:44:14.984Z,2.60
2019-03-10T09:45:14.966Z,2.60
2019-03-10T09:46:14.976Z,2.70
2019-03-10T09:47:14.951Z,2.20
2019-03-10T09:48:14.984Z,2.30
2019-03-10T09:49:14.943Z,2.50
2019-03-10T09:50:14.903Z,2.90
2019-03-10T09:51:14.896Z,2.20
2019-03-10T09:52:14.908Z,2.10
2019-03-10T09:53:14.894Z,2.60
2019-03-10T09:54:14.892Z,2.00
2019-03-10T09:55:14.854Z,2.00
2019-03-10T09:56:14.840Z,2.00
2019-03-10T09:57:14.837Z,1.80
2019-03-10T09:58:14.833Z,2.00
2019-03-10T09:59:14.800Z,2.30
2019-03-10T10:00:14.796Z,2.30
2019-03-10T10:01:14.785Z,2.20
2019-03-10T10:02:14.768Z,2.20
2019-03-10T10:03:14.790Z,2.10
2019-03-10T10:04:14.748Z,2.30
2019-03-10T10:05:14.737Z,2.30
2019-03-10T10:06:14.733Z,2.50
2019-03-10T10:07:14.722Z,2.90
2019-03-10T10:08:14.729Z,2.90
2019-03-10T10:09:14.739Z,2.80
2019-03-10T10:10:14.704Z,3.10
2019-03-10T10:11:14.683Z,3.10
2019-03-10T10:12:14.677Z,3.00
2019-03-10T10:13:14.657Z,3.30
2019-03-10T10:14:14.667Z,3.00
2019-03-10T10:15:14.625Z,2.90
2019-03-10T10:16:14.618Z,3.00
2019-03-10T10:17:14.604Z,3.50
2019-03-10T10:18:14.594Z,3.10
2019-03-10T10:19:14.593Z,3.20
2019-03-10T10:20:14.589Z,4.00
2019-03-10T10:21:14.570Z,3.80
2019-03-10T10:22:14.563Z,3.60
2019-03-10T10:23:14.538Z,3.40
2019-03-10T10:24:14.563Z,3.80
2019-03-10T10:25:14.526Z,3.50
2019-03-10T10:26:14.507Z,3.80
2019-03-10T10:27:14.491Z,4.50
2019-03-10T10:28:14.484Z,4.10
2019-03-10T10:29:14.499Z,4.20
2019-03-10T10:30:14.470Z,3.90
2019-03-10T10:31:14.464Z,4.10
2019-03-10T10:32:14.428Z,3.90
2019-03-10T10:33:14.423Z,4.10
2019-03-10T10:34:14.445Z,4.20
2019-03-10T10:35:14.401Z,3.90
2019-03-10T10:36:14.397Z,4.10
2019-03-10T10:37:14.384Z,4.00
2019-03-10T10:38:18.548Z,4.00
2019-03-10T10:39:14.381Z,4.00
2019-03-10T10:40:14.346Z,4.10
2019-03-10T10:41:14.338Z,4.20
2019-03-10T10:42:14.333Z,4.00
2019-03-10T10:43:14.309Z,4.60
2019-03-10T10:44:14.335Z,4.20
2019-03-10T10:45:14.294Z,4.00
2019-03-10T10:46:14.289Z,4.50
2019-03-10T10:47:14.282Z,4.30
2019-03-10T10:48:14.274Z,4.00
2019-03-10T10:49:14.286Z,4.00
2019-03-10T10:50:14.250Z,4.30
2019-03-10T10:51:14.249Z,4.20
2019-03-10T10:52:14.241Z,4.50
2019-03-10T10:53:14.469Z,4.60
2019-03-10T10:54:14.230Z,4.60
2019-03-10T10:55:14.181Z,4.40
2019-03-10T10:56:14.184Z,4.60
2019-03-10T10:57:14.167Z,4.50
2019-03-10T10:58:14.164Z,4.80
2019-03-10T10:59:14.178Z,4.30
2019-03-10T11:00:14.126Z,4.30
2019-03-10T11:01:14.105Z,4.40
2019-03-10T11:02:14.108Z,4.30
2019-03-10T11:03:14.109Z,4.40
2019-03-10T11:04:14.103Z,4.40
2019-03-10T11:05:14.075Z,4.00
2019-03-10T11:06:14.063Z,4.50
2019-03-10T11:07:14.050Z,4.20
2019-03-10T11:08:14.031Z,4.40
2019-03-10T11:09:14.067Z,4.60
2019-03-10T11:10:14.019Z,4.10
2019-03-10T11:11:14.035Z,4.40
2019-03-10T11:12:14.003Z,4.60
2019-03-10T11:13:13.980Z,4.50
2019-03-10T11:14:14.004Z,4.90
2019-03-10T11:15:13.970Z,4.60
2019-03-10T11:16:13.960Z,4.30
2019-03-10T11:17:13.962Z,5.20
2019-03-10T11:18:13.922Z,5.20
2019-03-10T11:19:13.920Z,5.60
2019-03-10T11:20:13.937Z,5.60
2019-03-10T11:21:13.947Z,5.20
2019-03-10T11:22:13.875Z,5.20
2019-03-10T11:23:13.874Z,5.10
2019-03-10T11:24:13.874Z,5.10
2019-03-10T11:25:13.855Z,5.40
2019-03-10T11:26:13.851Z,5.40
2019-03-10T11:27:13.844Z,5.20
2019-03-10T11:28:13.818Z,5.40
2019-03-10T11:29:13.826Z,5.60
2019-03-10T11:30:13.789Z,5.20
2019-03-10T11:31:14.075Z,5.10
2019-03-10T11:32:13.787Z,5.30
2019-03-10T11:33:13.765Z,5.00
2019-03-10T11:34:13.790Z,3.80
2019-03-10T11:35:13.748Z,3.80
2019-03-10T11:36:13.734Z,3.90
2019-03-10T11:37:13.715Z,3.80
2019-03-10T11:38:13.714Z,3.80
2019-03-10T11:39:13.724Z,3.50
2019-03-10T11:40:13.685Z,4.10
2019-03-10T11:41:13.690Z,4.10
2019-03-10T11:42:13.661Z,4.10
2019-03-10T11:43:13.650Z,3.60
2019-03-10T11:44:13.670Z,3.90
2019-03-10T11:45:13.634Z,3.70
2019-03-10T11:46:13.635Z,3.80
2019-03-10T11:47:13.620Z,3.70
2019-03-10T11:48:13.597Z,3.80
2019-03-10T11:49:13.607Z,4.20
2019-03-10T11:50:15.162Z,4.10
2019-03-10T11:51:13.562Z,4.40
2019-03-10T11:52:13.558Z,4.80
2019-03-10T11:53:19.255Z,4.40
2019-03-10T11:54:14.562Z,3.70
2019-03-10T11:55:13.561Z,4.00
2019-03-10T11:56:13.502Z,4.00
2019-03-10T11:57:13.493Z,3.70
2019-03-10T11:58:13.484Z,3.60
2019-03-10T11:59:13.474Z,3.80
2019-03-10T12:00:13.488Z,4.00
2019-03-10T12:01:13.450Z,3.60
2019-03-10T12:02:16.459Z,3.90
2019-03-10T12:03:13.441Z,4.30
2019-03-10T12:04:13.433Z,4.20
2019-03-10T12:05:13.500Z,4.00
2019-03-10T12:06:13.396Z,3.70
2019-03-10T12:07:13.384Z,3.50
2019-03-10T12:08:13.362Z,3.60
2019-03-10T12:09:13.378Z,4.10
2019-03-10T12:10:13.385Z,3.90
2019-03-10T12:11:13.338Z,3.70
2019-03-10T12:12:13.322Z,3.10
2019-03-10T12:13:13.328Z,3.00
2019-03-10T12:14:13.307Z,3.50
2019-03-10T12:15:13.317Z,3.10
2019-03-10T12:16:13.294Z,3.00
2019-03-10T12:17:13.264Z,3.10
2019-03-10T12:18:13.265Z,2.70
2019-03-10T12:19:13.263Z,3.00
2019-03-10T12:20:13.292Z,2.80
2019-03-10T12:21:13.229Z,2.90
2019-03-10T12:22:13.242Z,2.60
2019-03-10T12:23:13.205Z,2.30
2019-03-10T12:24:13.209Z,2.40
2019-03-10T12:25:13.179Z,2.70
2019-03-10T12:26:13.199Z,2.40
2019-03-10T12:27:13.166Z,2.20
2019-03-10T12:28:13.159Z,2.50
2019-03-10T12:29:13.145Z,2.50
2019-03-10T12:30:13.121Z,2.20
2019-03-10T12:31:13.143Z,2.60
2019-03-10T12:32:13.114Z,2.40
2019-03-10T12:33:13.115Z,2.50
2019-03-10T12:34:13.081Z,2.50
2019-03-10T12:35:13.074Z,2.60
2019-03-10T12:36:13.092Z,3.00
2019-03-10T12:37:13.047Z,2.30
2019-03-10T12:38:13.055Z,2.40
2019-03-10T12:39:13.046Z,2.30
2019-03-10T12:40:13.017Z,2.50
2019-03-10T12:41:13.040Z,2.20
2019-03-10T12:42:13.042Z,2.30
2019-03-10T12:43:13.009Z,2.20
2019-03-10T12:44:12.989Z,2.30
2019-03-10T12:45:12.967Z,2.30
2019-03-10T12:46:12.955Z,1.90
2019-03-10T12:47:12.964Z,2.00
2019-03-10T12:48:12.926Z,2.30
2019-03-10T12:49:12.920Z,1.50
2019-03-10T12:50:12.918Z,2.10
2019-03-10T12:51:12.897Z,1.80
2019-03-10T12:52:12.912Z,1.90
2019-03-10T12:53:12.896Z,2.20
2019-03-10T12:54:12.860Z,1.70
2019-03-10T12:55:12.865Z,1.80
2019-03-10T12:56:12.842Z,1.80
2019-03-10T12:57:12.858Z,1.90
2019-03-10T12:58:12.826Z,1.90
2019-03-10T12:59:12.807Z,2.00
2019-03-10T13:00:13.586Z,2.10
2019-03-10T13:01:12.820Z,2.00
2019-03-10T13:02:12.803Z,2.00
2019-03-10T13:03:12.761Z,2.20
2019-03-10T13:04:12.758Z,2.10
2019-03-10T13:05:12.738Z,2.50
2019-03-10T13:06:12.741Z,2.50
2019-03-10T13:07:12.715Z,2.30
2019-03-10T13:08:12.719Z,2.20
2019-03-10T13:09:12.703Z,2.10
2019-03-10T13:10:12.961Z,2.30
2019-03-10T13:11:12.681Z,2.00
2019-03-10T13:12:12.676Z,2.20
2019-03-10T13:13:12.687Z,1.80
2019-03-10T13:14:12.653Z,1.80
2019-03-10T13:15:12.639Z,2.10
2019-03-10T13:16:12.663Z,2.20
2019-03-10T13:17:12.622Z,2.30
2019-03-10T13:18:12.633Z,2.30